sensor_id;sensor_type;location;lat;lon;timestamp;temperature;humidity
26575;DHT22;67165;50.256;10.978;2023-05-01T00:00:20;9.20;98.00
26575;DHT22;67165;50.256;10.978;2023-05-01T00:02:45;9.20;98.00
26575;DHT22;67165;50.256;10.978;2023-05-01T00:05:11;9.10;98.00
26575;DHT22;67165;50.256;10.978;2023-05-01T00:07:36;9.10;98.00
26575;DHT22;67165;50.256;10.978;2023-05-01T00:10:02;9.00;98.00
26575;DHT22;67165;50.256;10.978;2023-05-01T00:12:28;9.00;98.00
26575;DHT22;67165;50.256;10.978;2023-05-01T00:14:53;9.00;98.00
26575;DHT22;67165;50.256;10.978;2023-05-01T00:17:19;8.90;98.00
26575;DHT22;67165;50.256;10.978;2023-05-01T00:19:52;8.80;98.00
26575;DHT22;67165;50.256;10.978;2023-05-01T00:22:18;8.80;98.00
26575;DHT22;67165;50.256;10.978;2023-05-01T00:24:47;8.70;98.00
26575;DHT22;67165;50.256;10.978;2023-05-01T00:27:14;8.70;98.00
26575;DHT22;67165;50.256;10.978;2023-05-01T00:29:40;8.60;98.00
26575;DHT22;67165;50.256;10.978;2023-05-01T00:32:06;8.50;98.00
26575;DHT22;67165;50.256;10.978;2023-05-01T00:34:32;8.60;98.00
26575;DHT22;67165;50.256;10.978;2023-05-01T00:36:58;8.60;98.00
26575;DHT22;67165;50.256;10.978;2023-05-01T00:39:23;8.60;98.00
26575;DHT22;67165;50.256;10.978;2023-05-01T00:41:49;8.70;98.00
26575;DHT22;67165;50.256;10.978;2023-05-01T00:44:15;8.60;98.00
26575;DHT22;67165;50.256;10.978;2023-05-01T00:46:41;8.70;98.00
26575;DHT22;67165;50.256;10.978;2023-05-01T00:49:08;8.80;98.00
26575;DHT22;67165;50.256;10.978;2023-05-01T00:51:37;8.70;98.00
26575;DHT22;67165;50.256;10.978;2023-05-01T00:54:02;8.70;98.00
26575;DHT22;67165;50.256;10.978;2023-05-01T00:56:30;8.70;98.00
26575;DHT22;67165;50.256;10.978;2023-05-01T00:58:56;8.70;98.00
26575;DHT22;67165;50.256;10.978;2023-05-01T01:01:22;8.70;98.00
26575;DHT22;67165;50.256;10.978;2023-05-01T01:03:48;8.70;98.00
26575;DHT22;67165;50.256;10.978;2023-05-01T01:12:26;8.60;98.00
26575;DHT22;67165;50.256;10.978;2023-05-01T01:14:32;8.70;98.00
26575;DHT22;67165;50.256;10.978;2023-05-01T01:17:10;8.80;98.00
26575;DHT22;67165;50.256;10.978;2023-05-01T01:22:34;8.70;98.00
26575;DHT22;67165;50.256;10.978;2023-05-01T01:25:24;8.70;98.00
26575;DHT22;67165;50.256;10.978;2023-05-01T01:35:30;8.60;98.00
26575;DHT22;67165;50.256;10.978;2023-05-01T01:40:38;8.60;98.00
26575;DHT22;67165;50.256;10.978;2023-05-01T01:43:12;8.60;98.00
26575;DHT22;67165;50.256;10.978;2023-05-01T01:45:42;8.50;98.00
26575;DHT22;67165;50.256;10.978;2023-05-01T01:48:15;8.50;98.00
26575;DHT22;67165;50.256;10.978;2023-05-01T01:50:44;8.50;98.00
26575;DHT22;67165;50.256;10.978;2023-05-01T01:53:15;8.50;98.00
26575;DHT22;67165;50.256;10.978;2023-05-01T01:55:43;8.50;98.00
26575;DHT22;67165;50.256;10.978;2023-05-01T01:58:11;8.50;98.00
26575;DHT22;67165;50.256;10.978;2023-05-01T02:00:39;8.40;98.00
26575;DHT22;67165;50.256;10.978;2023-05-01T02:03:08;8.40;98.00
26575;DHT22;67165;50.256;10.978;2023-05-01T02:05:35;8.40;98.00
26575;DHT22;67165;50.256;10.978;2023-05-01T02:08:03;8.40;98.00
26575;DHT22;67165;50.256;10.978;2023-05-01T02:10:30;8.30;98.00
26575;DHT22;67165;50.256;10.978;2023-05-01T02:12:57;8.30;98.00
26575;DHT22;67165;50.256;10.978;2023-05-01T02:15:24;8.30;98.00
26575;DHT22;67165;50.256;10.978;2023-05-01T02:17:51;8.30;98.00
26575;DHT22;67165;50.256;10.978;2023-05-01T02:20:18;8.20;98.00
26575;DHT22;67165;50.256;10.978;2023-05-01T02:22:47;8.20;98.00
26575;DHT22;67165;50.256;10.978;2023-05-01T02:25:15;8.20;98.00
26575;DHT22;67165;50.256;10.978;2023-05-01T02:30:07;8.10;98.00
26575;DHT22;67165;50.256;10.978;2023-05-01T02:32:34;8.00;98.00
26575;DHT22;67165;50.256;10.978;2023-05-01T02:34:59;8.00;98.00
26575;DHT22;67165;50.256;10.978;2023-05-01T02:37:26;8.00;98.00
26575;DHT22;67165;50.256;10.978;2023-05-01T02:39:53;8.10;98.00
26575;DHT22;67165;50.256;10.978;2023-05-01T02:42:21;8.10;98.00
26575;DHT22;67165;50.256;10.978;2023-05-01T02:45:01;8.10;98.00
26575;DHT22;67165;50.256;10.978;2023-05-01T02:47:29;8.20;98.00
26575;DHT22;67165;50.256;10.978;2023-05-01T02:49:57;8.10;98.00
26575;DHT22;67165;50.256;10.978;2023-05-01T02:52:23;8.10;98.00
26575;DHT22;67165;50.256;10.978;2023-05-01T02:54:49;8.10;98.00
26575;DHT22;67165;50.256;10.978;2023-05-01T02:57:18;8.10;98.00
26575;DHT22;67165;50.256;10.978;2023-05-01T02:59:45;8.10;98.00
26575;DHT22;67165;50.256;10.978;2023-05-01T03:02:10;8.10;98.00
26575;DHT22;67165;50.256;10.978;2023-05-01T03:04:36;8.00;98.00
26575;DHT22;67165;50.256;10.978;2023-05-01T03:07:02;8.00;98.00
26575;DHT22;67165;50.256;10.978;2023-05-01T03:09:29;8.00;98.00
26575;DHT22;67165;50.256;10.978;2023-05-01T03:11:56;7.90;98.00
26575;DHT22;67165;50.256;10.978;2023-05-01T03:14:21;7.80;98.00
26575;DHT22;67165;50.256;10.978;2023-05-01T03:16:48;7.80;98.00
26575;DHT22;67165;50.256;10.978;2023-05-01T03:19:13;7.80;98.00
26575;DHT22;67165;50.256;10.978;2023-05-01T03:21:39;7.80;98.00
26575;DHT22;67165;50.256;10.978;2023-05-01T03:24:05;7.80;98.00
26575;DHT22;67165;50.256;10.978;2023-05-01T03:26:31;7.80;98.00
26575;DHT22;67165;50.256;10.978;2023-05-01T03:28:57;7.80;98.00
26575;DHT22;67165;50.256;10.978;2023-05-01T03:31:23;7.80;98.00
26575;DHT22;67165;50.256;10.978;2023-05-01T03:33:49;7.80;98.00
26575;DHT22;67165;50.256;10.978;2023-05-01T03:36:14;7.80;98.00
26575;DHT22;67165;50.256;10.978;2023-05-01T03:38:41;7.70;98.00
26575;DHT22;67165;50.256;10.978;2023-05-01T03:41:07;7.60;98.00
26575;DHT22;67165;50.256;10.978;2023-05-01T03:43:32;7.60;98.00
26575;DHT22;67165;50.256;10.978;2023-05-01T03:45:58;7.50;98.00
26575;DHT22;67165;50.256;10.978;2023-05-01T03:48:24;7.50;98.00
26575;DHT22;67165;50.256;10.978;2023-05-01T03:50:50;7.50;98.00
26575;DHT22;67165;50.256;10.978;2023-05-01T03:53:16;7.50;98.00
26575;DHT22;67165;50.256;10.978;2023-05-01T03:55:43;7.50;98.00
26575;DHT22;67165;50.256;10.978;2023-05-01T03:58:09;7.50;98.00
26575;DHT22;67165;50.256;10.978;2023-05-01T04:00:36;7.40;98.00
26575;DHT22;67165;50.256;10.978;2023-05-01T04:03:02;7.40;98.00
26575;DHT22;67165;50.256;10.978;2023-05-01T04:05:29;7.30;98.00
26575;DHT22;67165;50.256;10.978;2023-05-01T04:07:55;7.30;98.00
26575;DHT22;67165;50.256;10.978;2023-05-01T04:10:20;7.30;98.00
26575;DHT22;67165;50.256;10.978;2023-05-01T04:12:46;7.30;98.00
26575;DHT22;67165;50.256;10.978;2023-05-01T04:15:11;7.30;98.00
26575;DHT22;67165;50.256;10.978;2023-05-01T04:17:37;7.30;98.00
26575;DHT22;67165;50.256;10.978;2023-05-01T04:20:03;7.30;98.00
26575;DHT22;67165;50.256;10.978;2023-05-01T04:22:32;7.40;98.00
26575;DHT22;67165;50.256;10.978;2023-05-01T04:24:58;7.40;98.00
26575;DHT22;67165;50.256;10.978;2023-05-01T04:27:24;7.50;98.00
26575;DHT22;67165;50.256;10.978;2023-05-01T04:29:50;7.50;98.00
26575;DHT22;67165;50.256;10.978;2023-05-01T04:32:15;7.50;98.00
26575;DHT22;67165;50.256;10.978;2023-05-01T04:34:41;7.50;98.00
26575;DHT22;67165;50.256;10.978;2023-05-01T04:37:08;7.50;98.00
26575;DHT22;67165;50.256;10.978;2023-05-01T04:39:34;7.50;98.00
26575;DHT22;67165;50.256;10.978;2023-05-01T04:42:01;7.50;98.00
26575;DHT22;67165;50.256;10.978;2023-05-01T04:44:27;7.50;98.00
26575;DHT22;67165;50.256;10.978;2023-05-01T04:46:53;7.60;98.00
26575;DHT22;67165;50.256;10.978;2023-05-01T04:49:20;7.70;98.00
26575;DHT22;67165;50.256;10.978;2023-05-01T04:51:46;7.70;98.00
26575;DHT22;67165;50.256;10.978;2023-05-01T04:54:11;7.80;98.00
26575;DHT22;67165;50.256;10.978;2023-05-01T04:56:37;7.80;98.00
26575;DHT22;67165;50.256;10.978;2023-05-01T04:59:03;7.90;98.00
26575;DHT22;67165;50.256;10.978;2023-05-01T05:01:28;8.10;98.00
26575;DHT22;67165;50.256;10.978;2023-05-01T05:03:54;8.20;98.00
26575;DHT22;67165;50.256;10.978;2023-05-01T05:06:21;8.30;98.00
26575;DHT22;67165;50.256;10.978;2023-05-01T05:08:47;8.50;98.00
26575;DHT22;67165;50.256;10.978;2023-05-01T05:11:19;8.70;98.00
26575;DHT22;67165;50.256;10.978;2023-05-01T05:13:45;8.90;98.00
26575;DHT22;67165;50.256;10.978;2023-05-01T05:16:11;9.10;98.00
26575;DHT22;67165;50.256;10.978;2023-05-01T05:18:37;9.20;98.00
26575;DHT22;67165;50.256;10.978;2023-05-01T05:21:06;9.40;98.00
26575;DHT22;67165;50.256;10.978;2023-05-01T05:23:33;9.60;98.00
26575;DHT22;67165;50.256;10.978;2023-05-01T05:25:59;9.80;98.00
26575;DHT22;67165;50.256;10.978;2023-05-01T05:28:26;10.00;98.00
26575;DHT22;67165;50.256;10.978;2023-05-01T05:30:53;10.20;98.00
26575;DHT22;67165;50.256;10.978;2023-05-01T05:33:19;10.20;98.00
26575;DHT22;67165;50.256;10.978;2023-05-01T05:35:45;10.30;98.00
26575;DHT22;67165;50.256;10.978;2023-05-01T05:38:10;10.40;98.00
26575;DHT22;67165;50.256;10.978;2023-05-01T05:40:36;10.50;98.00
26575;DHT22;67165;50.256;10.978;2023-05-01T05:43:02;10.60;98.00
26575;DHT22;67165;50.256;10.978;2023-05-01T05:45:28;10.70;98.00
26575;DHT22;67165;50.256;10.978;2023-05-01T05:47:53;10.80;98.00
26575;DHT22;67165;50.256;10.978;2023-05-01T05:50:19;11.00;98.00
26575;DHT22;67165;50.256;10.978;2023-05-01T05:52:45;11.20;98.00
26575;DHT22;67165;50.256;10.978;2023-05-01T05:55:10;11.40;98.00
26575;DHT22;67165;50.256;10.978;2023-05-01T05:57:36;11.60;98.00
26575;DHT22;67165;50.256;10.978;2023-05-01T06:00:03;11.80;98.00
26575;DHT22;67165;50.256;10.978;2023-05-01T06:02:30;11.70;98.00
26575;DHT22;67165;50.256;10.978;2023-05-01T06:04:59;11.70;98.00
26575;DHT22;67165;50.256;10.978;2023-05-01T06:07:25;11.80;98.00
26575;DHT22;67165;50.256;10.978;2023-05-01T06:09:50;12.00;98.00
26575;DHT22;67165;50.256;10.978;2023-05-01T06:12:16;12.00;98.00
26575;DHT22;67165;50.256;10.978;2023-05-01T06:14:42;12.00;98.00
26575;DHT22;67165;50.256;10.978;2023-05-01T06:17:07;12.10;98.00
26575;DHT22;67165;50.256;10.978;2023-05-01T06:19:34;12.20;98.00
26575;DHT22;67165;50.256;10.978;2023-05-01T06:22:00;12.30;98.00
26575;DHT22;67165;50.256;10.978;2023-05-01T06:24:26;12.40;98.00
26575;DHT22;67165;50.256;10.978;2023-05-01T06:26:52;12.50;98.00
26575;DHT22;67165;50.256;10.978;2023-05-01T06:29:18;12.60;98.00
26575;DHT22;67165;50.256;10.978;2023-05-01T06:31:43;12.70;98.00
26575;DHT22;67165;50.256;10.978;2023-05-01T06:34:10;12.80;98.00
26575;DHT22;67165;50.256;10.978;2023-05-01T06:36:35;13.10;98.00
26575;DHT22;67165;50.256;10.978;2023-05-01T06:39:01;13.30;98.00
26575;DHT22;67165;50.256;10.978;2023-05-01T06:41:27;13.30;98.00
26575;DHT22;67165;50.256;10.978;2023-05-01T06:43:52;13.30;98.00
26575;DHT22;67165;50.256;10.978;2023-05-01T06:46:18;13.40;98.00
26575;DHT22;67165;50.256;10.978;2023-05-01T06:48:44;13.40;98.00
26575;DHT22;67165;50.256;10.978;2023-05-01T06:51:10;13.40;98.00
26575;DHT22;67165;50.256;10.978;2023-05-01T06:53:39;13.40;98.00
26575;DHT22;67165;50.256;10.978;2023-05-01T06:56:06;13.60;98.00
26575;DHT22;67165;50.256;10.978;2023-05-01T06:58:32;14.00;98.00
26575;DHT22;67165;50.256;10.978;2023-05-01T07:00:58;13.90;98.00
26575;DHT22;67165;50.256;10.978;2023-05-01T07:03:24;14.00;98.00
26575;DHT22;67165;50.256;10.978;2023-05-01T07:05:52;14.40;97.30
26575;DHT22;67165;50.256;10.978;2023-05-01T07:08:18;14.60;97.90
26575;DHT22;67165;50.256;10.978;2023-05-01T07:10:44;14.50;97.30
26575;DHT22;67165;50.256;10.978;2023-05-01T07:13:12;14.60;96.20
26575;DHT22;67165;50.256;10.978;2023-05-01T07:15:37;14.80;97.00
26575;DHT22;67165;50.256;10.978;2023-05-01T07:18:03;14.90;96.80
26575;DHT22;67165;50.256;10.978;2023-05-01T07:20:32;15.10;96.70
26575;DHT22;67165;50.256;10.978;2023-05-01T07:22:59;15.30;97.50
26575;DHT22;67165;50.256;10.978;2023-05-01T07:25:24;15.30;96.10
26575;DHT22;67165;50.256;10.978;2023-05-01T07:27:50;15.70;97.70
26575;DHT22;67165;50.256;10.978;2023-05-01T07:30:16;15.70;95.40
26575;DHT22;67165;50.256;10.978;2023-05-01T07:32:42;15.70;95.40
26575;DHT22;67165;50.256;10.978;2023-05-01T07:35:07;15.60;94.80
26575;DHT22;67165;50.256;10.978;2023-05-01T07:37:33;16.00;95.50
26575;DHT22;67165;50.256;10.978;2023-05-01T07:39:59;16.10;96.20
26575;DHT22;67165;50.256;10.978;2023-05-01T07:42:28;16.20;95.60
26575;DHT22;67165;50.256;10.978;2023-05-01T07:44:54;16.20;95.80
26575;DHT22;67165;50.256;10.978;2023-05-01T07:47:19;16.40;94.80
26575;DHT22;67165;50.256;10.978;2023-05-01T07:49:45;16.30;95.80
26575;DHT22;67165;50.256;10.978;2023-05-01T07:52:11;16.00;95.00
26575;DHT22;67165;50.256;10.978;2023-05-01T07:54:36;16.00;95.20
26575;DHT22;67165;50.256;10.978;2023-05-01T07:57:04;16.10;96.20
26575;DHT22;67165;50.256;10.978;2023-05-01T07:59:30;15.90;95.60
26575;DHT22;67165;50.256;10.978;2023-05-01T08:01:56;16.00;95.30
26575;DHT22;67165;50.256;10.978;2023-05-01T08:04:21;16.20;97.20
26575;DHT22;67165;50.256;10.978;2023-05-01T08:06:50;16.20;95.70
26575;DHT22;67165;50.256;10.978;2023-05-01T08:09:16;16.30;95.60
26575;DHT22;67165;50.256;10.978;2023-05-01T08:11:42;16.20;96.70
26575;DHT22;67165;50.256;10.978;2023-05-01T08:14:08;15.90;96.20
26575;DHT22;67165;50.256;10.978;2023-05-01T08:16:36;15.90;95.90
26575;DHT22;67165;50.256;10.978;2023-05-01T08:19:02;15.90;96.70
26575;DHT22;67165;50.256;10.978;2023-05-01T08:21:28;16.10;97.80
26575;DHT22;67165;50.256;10.978;2023-05-01T08:23:54;16.00;97.30
26575;DHT22;67165;50.256;10.978;2023-05-01T08:26:21;16.30;96.60
26575;DHT22;67165;50.256;10.978;2023-05-01T08:28:47;16.50;96.80
26575;DHT22;67165;50.256;10.978;2023-05-01T08:31:14;16.70;97.60
26575;DHT22;67165;50.256;10.978;2023-05-01T08:33:39;16.80;97.30
26575;DHT22;67165;50.256;10.978;2023-05-01T08:36:08;16.80;96.80
26575;DHT22;67165;50.256;10.978;2023-05-01T08:38:35;17.10;98.00
26575;DHT22;67165;50.256;10.978;2023-05-01T08:41:00;16.90;95.50
26575;DHT22;67165;50.256;10.978;2023-05-01T08:43:29;16.80;97.20
26575;DHT22;67165;50.256;10.978;2023-05-01T08:45:58;16.70;96.20
26575;DHT22;67165;50.256;10.978;2023-05-01T08:48:28;17.00;97.50
26575;DHT22;67165;50.256;10.978;2023-05-01T08:50:55;16.80;95.50
26575;DHT22;67165;50.256;10.978;2023-05-01T08:53:23;17.00;95.70
26575;DHT22;67165;50.256;10.978;2023-05-01T08:55:50;17.00;95.60
26575;DHT22;67165;50.256;10.978;2023-05-01T08:58:17;17.10;95.50
26575;DHT22;67165;50.256;10.978;2023-05-01T09:00:45;17.00;94.70
26575;DHT22;67165;50.256;10.978;2023-05-01T09:03:12;17.00;95.50
26575;DHT22;67165;50.256;10.978;2023-05-01T09:05:40;17.10;95.30
26575;DHT22;67165;50.256;10.978;2023-05-01T09:08:06;17.20;95.00
26575;DHT22;67165;50.256;10.978;2023-05-01T09:10:32;17.40;96.20
26575;DHT22;67165;50.256;10.978;2023-05-01T09:13:03;17.40;96.00
26575;DHT22;67165;50.256;10.978;2023-05-01T09:15:31;17.40;96.00
26575;DHT22;67165;50.256;10.978;2023-05-01T09:17:59;17.30;94.70
26575;DHT22;67165;50.256;10.978;2023-05-01T09:20:25;17.30;94.60
26575;DHT22;67165;50.256;10.978;2023-05-01T09:22:51;17.30;94.30
26575;DHT22;67165;50.256;10.978;2023-05-01T09:25:17;17.40;95.40
26575;DHT22;67165;50.256;10.978;2023-05-01T09:27:44;17.60;95.50
26575;DHT22;67165;50.256;10.978;2023-05-01T09:30:33;17.60;95.80
26575;DHT22;67165;50.256;10.978;2023-05-01T09:33:12;18.00;95.00
26575;DHT22;67165;50.256;10.978;2023-05-01T09:35:52;17.80;94.50
26575;DHT22;67165;50.256;10.978;2023-05-01T09:38:26;17.60;94.90
26575;DHT22;67165;50.256;10.978;2023-05-01T09:40:55;17.60;92.80
26575;DHT22;67165;50.256;10.978;2023-05-01T09:43:29;17.60;93.10
26575;DHT22;67165;50.256;10.978;2023-05-01T09:46:03;17.70;92.80
26575;DHT22;67165;50.256;10.978;2023-05-01T09:48:31;17.90;92.70
26575;DHT22;67165;50.256;10.978;2023-05-01T09:50:58;18.20;92.50
26575;DHT22;67165;50.256;10.978;2023-05-01T09:53:37;18.20;93.60
26575;DHT22;67165;50.256;10.978;2023-05-01T09:56:03;18.00;92.20
26575;DHT22;67165;50.256;10.978;2023-05-01T09:58:29;18.10;91.80
26575;DHT22;67165;50.256;10.978;2023-05-01T10:00:55;18.10;91.60
26575;DHT22;67165;50.256;10.978;2023-05-01T10:03:21;18.10;92.90
26575;DHT22;67165;50.256;10.978;2023-05-01T10:05:47;18.30;91.70
26575;DHT22;67165;50.256;10.978;2023-05-01T10:08:12;18.50;94.00
26575;DHT22;67165;50.256;10.978;2023-05-01T10:10:42;18.40;92.80
26575;DHT22;67165;50.256;10.978;2023-05-01T10:15:39;18.60;92.60
26575;DHT22;67165;50.256;10.978;2023-05-01T10:18:07;18.50;92.50
26575;DHT22;67165;50.256;10.978;2023-05-01T10:20:34;18.50;91.60
26575;DHT22;67165;50.256;10.978;2023-05-01T10:23:01;18.60;90.00
26575;DHT22;67165;50.256;10.978;2023-05-01T10:25:28;18.40;89.30
26575;DHT22;67165;50.256;10.978;2023-05-01T10:27:54;18.00;90.80
26575;DHT22;67165;50.256;10.978;2023-05-01T10:30:22;18.10;90.70
26575;DHT22;67165;50.256;10.978;2023-05-01T10:32:48;18.10;90.00
26575;DHT22;67165;50.256;10.978;2023-05-01T10:35:25;18.10;90.50
26575;DHT22;67165;50.256;10.978;2023-05-01T10:38:07;18.20;89.80
26575;DHT22;67165;50.256;10.978;2023-05-01T10:45:37;18.50;92.30
26575;DHT22;67165;50.256;10.978;2023-05-01T10:48:03;18.50;91.40
26575;DHT22;67165;50.256;10.978;2023-05-01T10:50:29;18.60;92.00
26575;DHT22;67165;50.256;10.978;2023-05-01T10:53:15;18.50;91.80
26575;DHT22;67165;50.256;10.978;2023-05-01T10:55:42;18.60;90.70
26575;DHT22;67165;50.256;10.978;2023-05-01T10:58:12;18.70;89.80
26575;DHT22;67165;50.256;10.978;2023-05-01T11:00:39;18.50;89.60
26575;DHT22;67165;50.256;10.978;2023-05-01T11:06:15;18.30;91.10
26575;DHT22;67165;50.256;10.978;2023-05-01T11:08:40;18.10;93.20
26575;DHT22;67165;50.256;10.978;2023-05-01T11:14:06;18.20;93.00
26575;DHT22;67165;50.256;10.978;2023-05-01T11:19:05;18.10;93.40
26575;DHT22;67165;50.256;10.978;2023-05-01T11:21:33;18.10;92.60
26575;DHT22;67165;50.256;10.978;2023-05-01T11:24:02;17.90;92.80
26575;DHT22;67165;50.256;10.978;2023-05-01T11:26:29;18.00;92.70
26575;DHT22;67165;50.256;10.978;2023-05-01T11:28:58;18.10;91.30
26575;DHT22;67165;50.256;10.978;2023-05-01T11:31:27;18.20;91.90
26575;DHT22;67165;50.256;10.978;2023-05-01T11:33:58;17.90;91.80
26575;DHT22;67165;50.256;10.978;2023-05-01T11:36:24;17.90;92.30
26575;DHT22;67165;50.256;10.978;2023-05-01T11:38:52;18.00;92.40
26575;DHT22;67165;50.256;10.978;2023-05-01T11:41:21;18.10;92.90
26575;DHT22;67165;50.256;10.978;2023-05-01T11:43:51;18.00;93.40
26575;DHT22;67165;50.256;10.978;2023-05-01T11:46:28;18.00;93.90
26575;DHT22;67165;50.256;10.978;2023-05-01T11:48:59;18.00;92.40
26575;DHT22;67165;50.256;10.978;2023-05-01T11:51:27;17.80;93.20
26575;DHT22;67165;50.256;10.978;2023-05-01T11:54:00;17.60;93.10
26575;DHT22;67165;50.256;10.978;2023-05-01T11:56:27;17.50;92.70
26575;DHT22;67165;50.256;10.978;2023-05-01T11:58:57;17.70;94.00
26575;DHT22;67165;50.256;10.978;2023-05-01T12:01:37;17.80;93.50
26575;DHT22;67165;50.256;10.978;2023-05-01T12:04:05;17.60;90.70
26575;DHT22;67165;50.256;10.978;2023-05-01T12:06:45;17.50;90.80
26575;DHT22;67165;50.256;10.978;2023-05-01T12:09:19;17.40;91.40
26575;DHT22;67165;50.256;10.978;2023-05-01T12:11:46;17.40;90.10
26575;DHT22;67165;50.256;10.978;2023-05-01T12:14:13;17.40;90.60
26575;DHT22;67165;50.256;10.978;2023-05-01T12:16:40;17.40;91.90
26575;DHT22;67165;50.256;10.978;2023-05-01T12:19:06;17.40;90.30
26575;DHT22;67165;50.256;10.978;2023-05-01T12:21:32;17.50;89.90
26575;DHT22;67165;50.256;10.978;2023-05-01T12:24:16;17.40;91.00
26575;DHT22;67165;50.256;10.978;2023-05-01T12:26:43;17.40;91.10
26575;DHT22;67165;50.256;10.978;2023-05-01T12:29:09;17.40;90.90
26575;DHT22;67165;50.256;10.978;2023-05-01T12:31:36;17.30;91.70
26575;DHT22;67165;50.256;10.978;2023-05-01T12:34:05;17.20;95.00
26575;DHT22;67165;50.256;10.978;2023-05-01T12:36:34;16.80;97.30
26575;DHT22;67165;50.256;10.978;2023-05-01T12:39:03;16.40;98.00
26575;DHT22;67165;50.256;10.978;2023-05-01T12:41:46;16.20;98.00
26575;DHT22;67165;50.256;10.978;2023-05-01T12:44:18;16.10;98.00
26575;DHT22;67165;50.256;10.978;2023-05-01T12:47:02;15.90;98.00
26575;DHT22;67165;50.256;10.978;2023-05-01T12:49:31;15.80;98.00
26575;DHT22;67165;50.256;10.978;2023-05-01T12:51:59;15.70;98.00
26575;DHT22;67165;50.256;10.978;2023-05-01T12:54:37;15.60;98.00
26575;DHT22;67165;50.256;10.978;2023-05-01T12:57:14;15.50;98.00
26575;DHT22;67165;50.256;10.978;2023-05-01T12:59:45;15.30;98.00
26575;DHT22;67165;50.256;10.978;2023-05-01T13:02:17;15.30;98.00
26575;DHT22;67165;50.256;10.978;2023-05-01T13:04:45;15.20;98.00
26575;DHT22;67165;50.256;10.978;2023-05-01T13:07:17;15.10;98.00
26575;DHT22;67165;50.256;10.978;2023-05-01T13:09:54;14.90;98.00
26575;DHT22;67165;50.256;10.978;2023-05-01T13:12:20;14.80;98.00
26575;DHT22;67165;50.256;10.978;2023-05-01T13:14:47;14.70;98.00
26575;DHT22;67165;50.256;10.978;2023-05-01T13:17:23;14.60;98.00
26575;DHT22;67165;50.256;10.978;2023-05-01T13:20:11;14.60;98.00
26575;DHT22;67165;50.256;10.978;2023-05-01T13:22:38;14.50;98.00
26575;DHT22;67165;50.256;10.978;2023-05-01T13:25:16;14.40;98.00
26575;DHT22;67165;50.256;10.978;2023-05-01T13:27:49;14.30;98.00
26575;DHT22;67165;50.256;10.978;2023-05-01T13:30:17;14.20;98.00
26575;DHT22;67165;50.256;10.978;2023-05-01T13:32:45;14.10;98.00
26575;DHT22;67165;50.256;10.978;2023-05-01T13:35:11;14.10;98.00
26575;DHT22;67165;50.256;10.978;2023-05-01T13:37:46;13.90;98.00
26575;DHT22;67165;50.256;10.978;2023-05-01T13:40:17;13.80;98.00
26575;DHT22;67165;50.256;10.978;2023-05-01T13:42:50;13.70;98.00
26575;DHT22;67165;50.256;10.978;2023-05-01T13:45:18;13.60;98.00
26575;DHT22;67165;50.256;10.978;2023-05-01T13:47:45;13.40;98.00
26575;DHT22;67165;50.256;10.978;2023-05-01T13:50:13;13.40;98.00
26575;DHT22;67165;50.256;10.978;2023-05-01T13:52:43;13.30;98.00
26575;DHT22;67165;50.256;10.978;2023-05-01T13:55:10;13.30;98.00
26575;DHT22;67165;50.256;10.978;2023-05-01T13:57:39;13.20;98.00
26575;DHT22;67165;50.256;10.978;2023-05-01T14:00:10;13.20;98.00
26575;DHT22;67165;50.256;10.978;2023-05-01T14:02:42;13.10;98.00
26575;DHT22;67165;50.256;10.978;2023-05-01T14:05:09;13.20;98.00
26575;DHT22;67165;50.256;10.978;2023-05-01T14:07:43;13.10;98.00
26575;DHT22;67165;50.256;10.978;2023-05-01T14:10:11;13.10;98.00
26575;DHT22;67165;50.256;10.978;2023-05-01T14:12:37;13.00;98.00
26575;DHT22;67165;50.256;10.978;2023-05-01T14:15:07;13.00;98.00
26575;DHT22;67165;50.256;10.978;2023-05-01T14:17:37;12.90;98.00
26575;DHT22;67165;50.256;10.978;2023-05-01T14:20:04;12.70;98.00
26575;DHT22;67165;50.256;10.978;2023-05-01T14:25:05;12.70;98.00
26575;DHT22;67165;50.256;10.978;2023-05-01T14:27:32;12.70;98.00
26575;DHT22;67165;50.256;10.978;2023-05-01T14:29:57;12.70;98.00
26575;DHT22;67165;50.256;10.978;2023-05-01T14:32:24;12.70;98.00
26575;DHT22;67165;50.256;10.978;2023-05-01T14:34:50;12.70;98.00
26575;DHT22;67165;50.256;10.978;2023-05-01T14:37:17;12.70;98.00
26575;DHT22;67165;50.256;10.978;2023-05-01T14:39:42;12.60;98.00
26575;DHT22;67165;50.256;10.978;2023-05-01T14:42:08;12.70;98.00
26575;DHT22;67165;50.256;10.978;2023-05-01T14:44:38;12.70;98.00
26575;DHT22;67165;50.256;10.978;2023-05-01T14:47:07;12.80;98.00
26575;DHT22;67165;50.256;10.978;2023-05-01T14:49:33;12.80;98.00
26575;DHT22;67165;50.256;10.978;2023-05-01T14:52:00;12.80;98.00
26575;DHT22;67165;50.256;10.978;2023-05-01T14:54:25;12.80;98.00
26575;DHT22;67165;50.256;10.978;2023-05-01T14:56:51;12.90;98.00
26575;DHT22;67165;50.256;10.978;2023-05-01T14:59:17;12.90;98.00
26575;DHT22;67165;50.256;10.978;2023-05-01T15:01:42;12.90;98.00
26575;DHT22;67165;50.256;10.978;2023-05-01T15:04:08;12.90;98.00
26575;DHT22;67165;50.256;10.978;2023-05-01T15:06:35;12.90;98.00
26575;DHT22;67165;50.256;10.978;2023-05-01T15:09:01;12.80;98.00
26575;DHT22;67165;50.256;10.978;2023-05-01T15:11:28;12.60;98.00
26575;DHT22;67165;50.256;10.978;2023-05-01T15:13:54;12.70;98.00
26575;DHT22;67165;50.256;10.978;2023-05-01T15:16:20;12.70;98.00
26575;DHT22;67165;50.256;10.978;2023-05-01T15:18:46;12.70;98.00
26575;DHT22;67165;50.256;10.978;2023-05-01T15:21:12;12.60;98.00
26575;DHT22;67165;50.256;10.978;2023-05-01T15:23:39;12.60;98.00
26575;DHT22;67165;50.256;10.978;2023-05-01T15:26:09;12.60;98.00
26575;DHT22;67165;50.256;10.978;2023-05-01T15:28:35;12.50;98.00
26575;DHT22;67165;50.256;10.978;2023-05-01T15:31:00;12.50;98.00
26575;DHT22;67165;50.256;10.978;2023-05-01T15:33:33;12.50;98.00
26575;DHT22;67165;50.256;10.978;2023-05-01T15:35:59;12.40;98.00
26575;DHT22;67165;50.256;10.978;2023-05-01T15:38:25;12.50;98.00
26575;DHT22;67165;50.256;10.978;2023-05-01T15:40:52;12.40;98.00
26575;DHT22;67165;50.256;10.978;2023-05-01T15:43:18;12.20;98.00
26575;DHT22;67165;50.256;10.978;2023-05-01T15:45:46;12.20;98.00
26575;DHT22;67165;50.256;10.978;2023-05-01T15:48:11;12.10;98.00
26575;DHT22;67165;50.256;10.978;2023-05-01T15:50:37;12.00;98.00
26575;DHT22;67165;50.256;10.978;2023-05-01T15:53:03;12.00;98.00
26575;DHT22;67165;50.256;10.978;2023-05-01T15:55:29;12.00;98.00
26575;DHT22;67165;50.256;10.978;2023-05-01T15:57:54;12.00;98.00
26575;DHT22;67165;50.256;10.978;2023-05-01T16:00:21;11.80;98.00
26575;DHT22;67165;50.256;10.978;2023-05-01T16:02:46;11.80;98.00